createdAt,value
2018-09-01T00:03:17.847Z,98590.00
2018-09-01T00:07:20.082Z,98586.00
2018-09-01T00:11:22.233Z,98580.00
2018-09-01T00:15:24.319Z,98583.00
2018-09-01T00:19:26.575Z,98584.00
2018-09-01T00:23:28.727Z,98581.00
2018-09-01T00:27:30.850Z,98576.00
2018-09-01T00:31:33.038Z,98581.00
2018-09-01T00:35:35.216Z,98590.00
2018-09-01T00:39:43.789Z,98591.00
2018-09-01T00:43:45.990Z,98591.00
2018-09-01T00:47:48.770Z,98591.00
2018-09-01T00:51:50.950Z,98588.00
2018-09-01T00:55:53.711Z,98593.00
2018-09-01T00:59:55.992Z,98597.00
2018-09-01T01:03:58.127Z,98589.00
2018-09-01T01:08:00.303Z,98593.00
2018-09-01T01:12:02.471Z,98590.00
2018-09-01T01:16:04.702Z,98595.00
2018-09-01T01:20:07.304Z,98591.00
2018-09-01T01:24:09.483Z,98587.00
2018-09-01T01:28:11.666Z,98574.00
2018-09-01T01:32:13.844Z,98588.00
2018-09-01T01:36:16.030Z,98585.00
2018-09-01T01:40:18.194Z,98577.00
2018-09-01T01:44:20.350Z,98579.00
2018-09-01T01:48:22.500Z,98577.00
2018-09-01T01:52:24.651Z,98571.00
2018-09-01T01:56:26.795Z,98566.00
2018-09-01T02:00:29.248Z,98572.00
2018-09-01T02:04:31.578Z,98578.00
2018-09-01T02:08:33.794Z,98579.00
2018-09-01T02:12:35.915Z,98574.00
2018-09-01T02:16:38.926Z,98570.00
2018-09-01T02:20:41.235Z,98571.00
2018-09-01T02:24:43.552Z,98580.00
2018-09-01T02:28:45.719Z,98585.00
2018-09-01T02:32:47.931Z,98588.00
2018-09-01T02:36:50.117Z,98584.00
2018-09-01T02:40:52.258Z,98595.00
2018-09-01T02:44:54.447Z,98586.00
2018-09-01T02:48:56.595Z,98592.00
2018-09-01T02:52:58.748Z,98601.00
2018-09-01T02:57:00.907Z,98608.00
2018-09-01T03:01:08.727Z,98613.00
2018-09-01T03:05:11.467Z,98624.00
2018-09-01T03:09:13.678Z,98626.00
2018-09-01T03:13:15.806Z,98622.00
2018-09-01T03:17:17.951Z,98628.00
2018-09-01T03:21:20.107Z,98625.00
2018-09-01T03:25:22.287Z,98638.00
2018-09-01T03:29:24.515Z,98643.00
2018-09-01T03:33:26.634Z,98645.00
2018-09-01T03:37:28.775Z,98648.00
2018-09-01T03:41:30.959Z,98638.00
2018-09-01T03:45:33.144Z,98642.00
2018-09-01T03:49:35.331Z,98641.00
2018-09-01T03:53:37.614Z,98646.00
2018-09-01T03:57:40.344Z,98649.00
2018-09-01T04:01:42.522Z,98640.00
2018-09-01T04:05:44.662Z,98645.00
2018-09-01T04:09:46.820Z,98646.00
2018-09-01T04:13:48.960Z,98651.00
2018-09-01T04:17:51.120Z,98648.00
2018-09-01T04:21:53.286Z,98644.00
2018-09-01T04:25:55.578Z,98645.00
2018-09-01T04:29:58.023Z,98655.00
2018-09-01T04:34:00.241Z,98648.00
2018-09-01T04:38:02.720Z,98646.00
2018-09-01T04:42:04.901Z,98651.00
2018-09-01T04:46:07.096Z,98656.00
2018-09-01T04:50:09.284Z,98674.00
2018-09-01T04:54:12.238Z,98674.00
2018-09-01T04:58:14.619Z,98666.00
2018-09-01T05:02:16.811Z,98667.00
2018-09-01T05:06:19.019Z,98669.00
2018-09-01T05:10:21.276Z,98677.00
2018-09-01T05:14:24.448Z,98674.00
2018-09-01T05:18:27.359Z,98671.00
2018-09-01T05:22:29.531Z,98671.00
2018-09-01T05:26:31.694Z,98673.00
2018-09-01T05:30:33.874Z,98671.00
2018-09-01T05:34:36.087Z,98671.00
2018-09-01T05:38:38.766Z,98677.00
2018-09-01T05:42:40.970Z,98668.00
2018-09-01T05:46:43.143Z,98666.00
2018-09-01T05:50:45.377Z,98674.00
2018-09-01T05:54:47.539Z,98681.00
2018-09-01T05:58:49.757Z,98679.00
2018-09-01T06:02:52.754Z,98657.00
2018-09-01T06:06:54.995Z,98679.00
2018-09-01T06:10:57.954Z,98675.00
2018-09-01T06:15:01.128Z,98685.00
2018-09-01T06:19:03.405Z,98685.00
2018-09-01T06:23:05.727Z,98692.00
2018-09-01T06:27:12.899Z,98687.00
2018-09-01T06:31:16.071Z,98689.00
2018-09-01T06:35:18.351Z,98699.00
2018-09-01T06:39:20.512Z,98701.00
2018-09-01T06:43:22.743Z,98695.00
2018-09-01T06:47:24.928Z,98704.00
2018-09-01T06:51:27.109Z,98710.00
2018-09-01T06:55:29.296Z,98711.00
2018-09-01T06:59:31.501Z,98707.00
2018-09-01T07:03:33.643Z,98717.00
2018-09-01T07:07:35.851Z,98711.00
2018-09-01T07:11:38.110Z,98709.00
2018-09-01T07:15:40.271Z,98719.00
2018-09-01T07:19:42.462Z,98718.00
2018-09-01T07:23:44.638Z,98722.00
2018-09-01T07:27:46.841Z,98716.00
2018-09-01T07:31:49.096Z,98724.00
2018-09-01T07:35:51.303Z,98728.00
2018-09-01T07:39:53.488Z,98731.00
2018-09-01T07:43:55.664Z,98741.00
2018-09-01T07:47:57.861Z,98752.00
2018-09-01T07:52:00.045Z,98751.00
2018-09-01T07:56:02.314Z,98759.00
2018-09-01T08:00:04.735Z,98764.00
2018-09-01T08:04:06.936Z,98780.00
2018-09-01T08:08:09.099Z,98776.00
2018-09-01T08:13:40.961Z,98779.00
2018-09-01T08:17:43.155Z,98788.00
2018-09-01T08:21:46.121Z,98797.00
2018-09-01T08:25:48.414Z,98793.00
2018-09-01T08:29:50.587Z,98788.00
2018-09-01T08:33:52.818Z,98788.00
2018-09-01T08:37:54.988Z,98786.00
2018-09-01T08:41:57.672Z,98802.00
2018-09-01T08:45:59.915Z,98786.00
2018-09-01T08:50:02.096Z,98766.00
2018-09-01T08:54:04.280Z,98804.00
2018-09-01T08:58:06.555Z,98773.00
2018-09-01T09:02:08.825Z,98791.00
2018-09-01T09:06:10.986Z,98804.00
2018-09-01T09:10:13.202Z,98813.00
2018-09-01T09:14:15.387Z,98825.00
2018-09-01T09:18:17.563Z,98800.00
2018-09-01T09:22:19.767Z,98803.00
2018-09-01T09:26:22.018Z,98807.00
2018-09-01T09:30:24.288Z,98807.00
2018-09-01T09:34:26.934Z,98811.00
2018-09-01T09:38:29.274Z,98809.00
2018-09-01T09:42:31.469Z,98810.00
2018-09-01T09:46:33.901Z,98807.00
2018-09-01T09:50:36.059Z,98810.00
2018-09-01T09:54:38.834Z,98804.00
2018-09-01T09:58:41.094Z,98796.00
2018-09-01T10:02:43.259Z,98798.00
2018-09-01T10:06:45.434Z,98804.00
2018-09-01T10:10:47.841Z,98786.00
2018-09-01T10:14:50.279Z,98787.00
2018-09-01T10:18:52.761Z,98786.00
2018-09-01T10:22:55.004Z,98765.00
2018-09-01T10:26:57.199Z,98775.00
2018-09-01T10:30:59.340Z,98767.00
2018-09-01T10:35:01.543Z,98766.00
2018-09-01T10:39:06.471Z,98777.00
2018-09-01T10:43:08.659Z,98766.00
2018-09-01T10:47:10.888Z,98756.00
2018-09-01T10:51:13.191Z,98757.00
2018-09-01T10:55:15.564Z,98759.00
2018-09-01T10:59:17.924Z,98749.00
2018-09-01T11:03:20.107Z,98743.00
2018-09-01T11:07:22.452Z,98755.00
2018-09-01T11:11:24.680Z,98732.00
2018-09-01T11:15:26.938Z,98745.00
2018-09-01T11:19:29.583Z,98756.00
2018-09-01T11:23:31.893Z,98762.00
2018-09-01T11:27:34.149Z,98747.00
2018-09-01T11:31:36.354Z,98741.00
2018-09-01T11:35:38.640Z,98744.00
2018-09-01T11:39:40.846Z,98734.00
2018-09-01T11:43:43.160Z,98718.00
2018-09-01T11:47:45.379Z,98720.00
2018-09-01T11:51:47.828Z,98719.00
2018-09-01T11:55:50.096Z,98725.00
2018-09-01T11:59:52.304Z,98723.00
2018-09-01T12:03:54.629Z,98726.00
2018-09-01T12:07:56.823Z,98734.00
2018-09-01T12:11:59.067Z,98735.00
2018-09-01T12:16:01.284Z,98723.00
2018-09-01T12:20:03.605Z,98729.00
2018-09-01T12:24:06.004Z,98723.00
2018-09-01T12:28:08.227Z,98721.00
2018-09-01T12:32:10.396Z,98718.00
2018-09-01T12:36:12.691Z,98713.00
2018-09-01T12:40:14.859Z,98714.00
2018-09-01T12:44:17.015Z,98720.00
2018-09-01T12:48:19.156Z,98724.00
2018-09-01T12:52:21.387Z,98732.00
2018-09-01T12:56:23.692Z,98722.00
2018-09-01T13:00:25.929Z,98712.00
2018-09-01T13:04:28.203Z,98709.00
2018-09-01T13:08:30.392Z,98697.00
2018-09-01T13:12:32.571Z,98709.00
2018-09-01T13:16:34.784Z,98703.00
2018-09-01T13:20:37.016Z,98686.00
2018-09-01T13:24:39.223Z,98692.00
2018-09-01T13:28:41.412Z,98704.00
2018-09-01T13:32:43.607Z,98694.00
2018-09-01T13:36:45.830Z,98696.00
2018-09-01T13:40:48.079Z,98702.00
2018-09-01T13:44:50.279Z,98702.00
2018-09-01T13:48:52.494Z,98705.00
2018-09-01T13:52:54.727Z,98711.00
2018-09-01T13:56:56.912Z,98694.00
2018-09-01T14:00:59.066Z,98693.00
2018-09-01T14:05:01.220Z,98691.00
2018-09-01T14:09:04.519Z,98696.00
2018-09-01T14:13:06.743Z,98693.00
2018-09-01T14:17:08.977Z,98703.00
2018-09-01T14:21:11.564Z,98691.00
2018-09-01T14:25:13.785Z,98702.00
2018-09-01T14:29:15.971Z,98700.00
2018-09-01T14:33:18.136Z,98697.00
2018-09-01T14:37:20.346Z,98709.00
2018-09-01T14:41:22.475Z,98704.00
2018-09-01T14:45:24.776Z,98692.00
2018-09-01T14:49:26.899Z,98694.00
2018-09-01T14:53:29.647Z,98704.00
2018-09-01T14:57:31.838Z,98696.00
2018-09-01T15:01:33.979Z,98694.00
2018-09-01T15:05:36.152Z,98692.00
2018-09-01T15:09:38.395Z,98695.00
2018-09-01T15:13:40.647Z,98699.00
2018-09-01T15:17:42.859Z,98700.00
2018-09-01T15:21:45.094Z,98689.00
2018-09-01T15:25:47.305Z,98703.00
2018-09-01T15:29:49.495Z,98703.00
2018-09-01T15:33:51.679Z,98703.00
2018-09-01T15:37:53.875Z,98698.00
2018-09-01T15:41:56.031Z,98698.00
2018-09-01T15:45:58.206Z,98703.00
2018-09-01T15:50:00.462Z,98700.00
2018-09-01T15:54:02.791Z,98702.00
2018-09-01T15:58:04.930Z,98699.00
2018-09-01T16:02:07.291Z,98699.00
2018-09-01T16:06:09.497Z,98694.00
2018-09-01T16:10:11.899Z,98694.00
2018-09-01T16:14:14.136Z,98694.00
2018-09-01T16:18:16.374Z,98700.00
2018-09-01T16:22:18.562Z,98695.00
2018-09-01T16:26:20.787Z,98705.00
2018-09-01T16:30:23.104Z,98697.00
2018-09-01T16:34:25.410Z,98696.00
2018-09-01T16:38:27.573Z,98698.00
2018-09-01T16:42:29.821Z,98698.00
2018-09-01T16:46:32.052Z,98695.00
2018-09-01T16:50:34.212Z,98703.00
2018-09-01T16:54:37.423Z,98699.00
2018-09-01T16:58:39.656Z,98707.00
2018-09-01T17:02:41.869Z,98711.00
2018-09-01T17:06:44.064Z,98715.00
2018-09-01T17:10:46.236Z,98715.00
2018-09-01T17:14:48.884Z,98720.00
2018-09-01T17:18:51.081Z,98713.00
2018-09-01T17:22:53.338Z,98724.00
2018-09-01T17:26:55.556Z,98724.00
2018-09-01T17:30:57.835Z,98725.00
2018-09-01T17:34:59.991Z,98731.00
2018-09-01T17:39:04.360Z,98729.00
2018-09-01T17:43:06.555Z,98727.00
2018-09-01T17:47:08.760Z,98736.00
2018-09-01T17:51:11.177Z,98733.00
2018-09-01T17:55:13.388Z,98742.00
2018-09-01T17:59:16.027Z,98736.00
2018-09-01T18:03:18.255Z,98742.00
2018-09-01T18:07:20.491Z,98743.00
2018-09-01T18:11:22.681Z,98742.00
2018-09-01T18:15:25.699Z,98745.00
2018-09-01T18:19:27.879Z,98747.00
2018-09-01T18:23:30.144Z,98746.00
2018-09-01T18:27:32.635Z,98749.00
2018-09-01T18:31:35.017Z,98752.00
2018-09-01T18:35:37.269Z,98753.00
2018-09-01T18:39:39.448Z,98749.00
2018-09-01T18:43:41.703Z,98755.00
2018-09-01T18:47:43.864Z,98761.00
2018-09-01T18:51:46.079Z,98761.00
2018-09-01T18:55:48.291Z,98762.00
2018-09-01T18:59:50.456Z,98756.00
2018-09-01T19:03:52.664Z,98756.00
2018-09-01T19:07:54.808Z,98769.00
2018-09-01T19:11:57.018Z,98768.00
2018-09-01T19:15:59.228Z,98768.00
2018-09-01T19:20:01.407Z,98780.00
2018-09-01T19:24:03.592Z,98786.00
2018-09-01T19:28:05.767Z,98783.00
2018-09-01T19:32:08.697Z,98782.00
2018-09-01T19:36:10.933Z,98795.00
2018-09-01T19:40:13.463Z,98778.00
2018-09-01T19:44:15.617Z,98791.00
2018-09-01T19:48:17.776Z,98786.00
2018-09-01T19:52:19.944Z,98781.00
2018-09-01T19:56:22.296Z,98777.00
2018-09-01T20:00:24.647Z,98780.00
2018-09-01T20:04:26.861Z,98792.00
2018-09-01T20:08:29.085Z,98776.00
2018-09-01T20:12:31.307Z,98769.00
2018-09-01T20:16:33.463Z,98775.00
2018-09-01T20:20:35.736Z,98779.00
2018-09-01T20:24:38.225Z,98784.00
2018-09-01T20:28:40.405Z,98776.00
2018-09-01T20:32:42.730Z,98779.00
2018-09-01T20:36:45.282Z,98777.00
2018-09-01T20:40:47.467Z,98773.00
2018-09-01T20:44:49.651Z,98770.00
2018-09-01T20:48:51.818Z,98773.00
2018-09-01T20:52:53.959Z,98771.00
2018-09-01T20:56:56.239Z,98769.00
2018-09-01T21:00:58.655Z,98778.00
2018-09-01T21:05:00.989Z,98776.00
2018-09-01T21:09:03.597Z,98773.00
2018-09-01T21:13:06.175Z,98772.00
2018-09-01T21:17:08.348Z,98768.00
2018-09-01T21:21:10.511Z,98776.00
2018-09-01T21:25:12.686Z,98773.00
2018-09-01T21:29:14.827Z,98781.00
2018-09-01T21:33:17.273Z,98784.00
2018-09-01T21:37:19.496Z,98785.00
2018-09-01T21:41:21.646Z,98785.00
2018-09-01T21:45:23.828Z,98784.00
2018-09-01T21:49:25.986Z,98775.00
2018-09-01T21:53:28.197Z,98783.00
2018-09-01T21:57:30.862Z,98782.00
2018-09-01T22:01:33.334Z,98787.00
2018-09-01T22:05:35.835Z,98779.00
2018-09-01T22:09:37.980Z,98775.00
2018-09-01T22:13:40.606Z,98769.00
2018-09-01T22:17:42.823Z,98764.00
2018-09-01T22:21:45.179Z,98771.00
2018-09-01T22:25:47.342Z,98767.00
2018-09-01T22:29:49.526Z,98765.00
2018-09-01T22:33:51.683Z,98778.00
2018-09-01T22:37:53.869Z,98764.00
2018-09-01T22:41:56.066Z,98768.00
2018-09-01T22:45:58.235Z,98779.00
2018-09-01T22:50:00.354Z,98773.00
2018-09-01T22:54:02.502Z,98761.00
2018-09-01T22:58:04.764Z,98766.00
2018-09-01T23:02:07.031Z,98761.00
2018-09-01T23:06:09.244Z,98763.00
2018-09-01T23:10:11.442Z,98765.00
2018-09-01T23:14:14.118Z,98752.00
2018-09-01T23:18:16.230Z,98764.00
2018-09-01T23:22:18.670Z,98758.00
2018-09-01T23:26:20.810Z,98758.00
2018-09-01T23:30:23.658Z,98764.00
2018-09-01T23:34:25.907Z,98763.00
2018-09-01T23:38:28.679Z,98764.00
2018-09-01T23:42:30.855Z,98769.00
2018-09-01T23:46:32.996Z,98766.00
2018-09-01T23:50:35.135Z,98765.00
2018-09-01T23:54:37.267Z,98765.00
2018-09-01T23:58:39.427Z,98761.00
